createdAt,value
2017-12-21T00:00:52.587Z,23.53
2017-12-21T00:03:18.976Z,21.80
2017-12-21T00:05:45.301Z,23.10
2017-12-21T00:08:11.770Z,23.23
2017-12-21T00:10:38.971Z,21.50
2017-12-21T00:13:05.370Z,23.27
2017-12-21T00:15:31.842Z,19.90
2017-12-21T00:17:59.077Z,23.03
2017-12-21T00:20:25.453Z,24.97
2017-12-21T00:22:52.025Z,23.20
2017-12-21T00:25:18.867Z,23.70
2017-12-21T00:27:46.086Z,24.13
2017-12-21T00:30:13.216Z,20.90
2017-12-21T00:32:39.692Z,19.67
2017-12-21T00:35:06.233Z,21.40
2017-12-21T00:37:32.733Z,22.30
2017-12-21T00:39:59.132Z,18.77
2017-12-21T00:42:25.496Z,19.73
2017-12-21T00:44:51.900Z,18.80
2017-12-21T00:47:18.357Z,17.33
2017-12-21T00:49:44.798Z,18.53
2017-12-21T00:52:11.163Z,15.57
2017-12-21T00:54:37.551Z,14.47
2017-12-21T00:57:03.954Z,12.50
2017-12-21T00:59:30.500Z,15.27
2017-12-21T01:01:56.897Z,13.57
2017-12-21T01:04:23.318Z,15.17
2017-12-21T01:06:49.846Z,15.00
2017-12-21T01:09:16.415Z,11.53
2017-12-21T01:11:42.850Z,10.80
2017-12-21T01:14:09.344Z,10.47
2017-12-21T01:16:36.424Z,9.30
2017-12-21T01:19:02.864Z,9.00
2017-12-21T01:21:29.252Z,7.53
2017-12-21T01:23:55.734Z,10.27
2017-12-21T01:26:22.129Z,7.83
2017-12-21T01:28:48.528Z,6.20
2017-12-21T01:31:14.918Z,10.73
2017-12-21T01:33:41.287Z,9.30
2017-12-21T01:36:09.790Z,10.67
2017-12-21T01:38:36.726Z,9.33
2017-12-21T01:41:03.902Z,9.53
2017-12-21T01:43:31.216Z,10.33
2017-12-21T01:45:58.020Z,9.23
2017-12-21T01:48:24.947Z,10.20
2017-12-21T01:50:51.693Z,7.70
2017-12-21T01:53:18.659Z,9.90
2017-12-21T01:55:45.155Z,10.50
2017-12-21T01:58:11.568Z,10.40
2017-12-21T02:00:38.125Z,11.10
2017-12-21T02:03:04.587Z,10.10
2017-12-21T02:05:31.096Z,11.03
2017-12-21T02:07:57.575Z,11.70
2017-12-21T02:10:24.534Z,14.70
2017-12-21T02:12:51.108Z,11.50
2017-12-21T02:15:17.790Z,14.57
2017-12-21T02:17:44.326Z,15.13
2017-12-21T02:20:11.973Z,16.13
2017-12-21T02:22:38.584Z,17.00
2017-12-21T02:25:05.872Z,16.03
2017-12-21T02:27:32.285Z,18.43
2017-12-21T02:29:58.641Z,16.80
2017-12-21T02:32:25.078Z,15.00
2017-12-21T02:34:51.544Z,13.80
2017-12-21T02:37:18.175Z,18.47
2017-12-21T02:39:46.401Z,15.67
2017-12-21T02:42:12.883Z,19.00
2017-12-21T02:44:39.364Z,19.10
2017-12-21T02:47:05.765Z,19.30
2017-12-21T02:49:32.179Z,21.73
2017-12-21T02:51:59.379Z,20.63
2017-12-21T02:54:25.841Z,19.83
2017-12-21T02:56:52.225Z,19.87
2017-12-21T02:59:18.755Z,18.10
2017-12-21T03:01:45.268Z,21.13
2017-12-21T03:04:12.476Z,21.20
2017-12-21T03:06:38.906Z,21.77
2017-12-21T03:09:05.435Z,19.63
2017-12-21T03:11:32.001Z,22.47
2017-12-21T03:13:58.417Z,22.30
2017-12-21T03:16:24.900Z,19.50
2017-12-21T03:18:51.478Z,18.10
2017-12-21T03:21:19.956Z,22.83
2017-12-21T03:23:46.406Z,22.90
2017-12-21T03:26:13.201Z,17.30
2017-12-21T03:28:40.523Z,16.30
2017-12-21T03:31:07.800Z,19.93
2017-12-21T03:33:34.258Z,22.27
2017-12-21T03:36:00.688Z,20.83
2017-12-21T03:38:27.262Z,19.07
2017-12-21T03:40:53.855Z,17.63
2017-12-21T03:43:20.226Z,18.37
2017-12-21T03:45:46.672Z,18.30
2017-12-21T03:48:14.781Z,17.93
2017-12-21T03:50:41.250Z,16.80
2017-12-21T03:53:08.566Z,15.70
2017-12-21T03:55:35.057Z,14.83
2017-12-21T03:58:01.509Z,14.30
2017-12-21T04:00:28.029Z,11.13
2017-12-21T04:02:54.460Z,13.17
2017-12-21T04:05:20.873Z,13.73
2017-12-21T04:07:47.273Z,7.20
2017-12-21T04:10:13.665Z,10.80
2017-12-21T04:12:40.157Z,11.73
2017-12-21T04:15:06.589Z,12.17
2017-12-21T04:17:33.035Z,13.90
2017-12-21T04:19:59.396Z,13.33
2017-12-21T04:22:26.071Z,13.60
2017-12-21T04:24:53.009Z,12.30
2017-12-21T04:27:19.413Z,13.53
2017-12-21T04:29:45.921Z,14.43
2017-12-21T04:32:12.544Z,14.77
2017-12-21T04:34:39.850Z,13.63
2017-12-21T04:37:06.252Z,12.53
2017-12-21T04:39:32.666Z,16.67
2017-12-21T04:41:59.197Z,15.87
2017-12-21T04:44:26.324Z,16.27
2017-12-21T04:46:52.905Z,16.67
2017-12-21T04:49:21.133Z,15.70
2017-12-21T04:51:48.314Z,15.20
2017-12-21T04:54:15.594Z,14.00
2017-12-21T04:56:42.070Z,16.80
2017-12-21T04:59:08.626Z,12.67
2017-12-21T05:01:35.217Z,14.20
2017-12-21T05:04:01.700Z,12.17
2017-12-21T05:06:28.878Z,12.60
2017-12-21T05:08:55.643Z,11.93
2017-12-21T05:11:22.276Z,11.57
2017-12-21T05:13:48.864Z,14.13
2017-12-21T05:16:15.438Z,14.70
2017-12-21T05:18:42.788Z,12.30
2017-12-21T05:21:09.482Z,13.20
2017-12-21T05:23:36.331Z,11.70
2017-12-21T05:26:03.191Z,12.40
2017-12-21T05:28:29.561Z,12.83
2017-12-21T05:30:56.193Z,11.27
2017-12-21T05:33:23.071Z,14.23
2017-12-21T05:35:50.077Z,13.00
2017-12-21T05:38:16.540Z,14.57
2017-12-21T05:40:43.052Z,12.40
2017-12-21T05:43:10.900Z,16.17
2017-12-21T05:45:37.305Z,15.63
2017-12-21T05:48:03.702Z,11.40
2017-12-21T05:50:30.299Z,10.60
2017-12-21T05:52:57.407Z,12.30
2017-12-21T05:55:23.888Z,12.77
2017-12-21T05:57:50.528Z,12.23
2017-12-21T06:00:17.136Z,10.23
2017-12-21T06:02:43.725Z,12.83
2017-12-21T06:05:10.171Z,13.57
2017-12-21T06:07:36.740Z,14.33
2017-12-21T06:10:03.298Z,12.77
2017-12-21T06:12:29.696Z,15.30
2017-12-21T06:14:56.813Z,14.20
2017-12-21T06:17:23.388Z,14.43
2017-12-21T06:19:49.968Z,13.83
2017-12-21T06:22:17.394Z,14.07
2017-12-21T06:24:44.570Z,14.47
2017-12-21T06:27:11.299Z,13.13
2017-12-21T06:29:37.720Z,12.53
2017-12-21T06:32:04.196Z,11.93
2017-12-21T06:34:30.569Z,13.97
2017-12-21T06:36:58.191Z,12.17
2017-12-21T06:39:24.676Z,12.40
2017-12-21T06:41:51.775Z,15.20
2017-12-21T06:44:18.367Z,13.00
2017-12-21T06:46:45.693Z,12.90
2017-12-21T06:49:12.254Z,13.40
2017-12-21T06:51:39.754Z,11.37
2017-12-21T06:54:06.907Z,12.97
2017-12-21T06:56:34.136Z,11.63
2017-12-21T06:59:01.064Z,10.70
2017-12-21T07:01:28.512Z,13.00
2017-12-21T07:03:54.876Z,12.93
2017-12-21T07:06:21.495Z,11.00
2017-12-21T07:08:47.981Z,10.97
2017-12-21T07:11:14.686Z,11.77
2017-12-21T07:13:41.295Z,10.67
2017-12-21T07:16:07.876Z,13.10
2017-12-21T07:18:34.464Z,12.47
2017-12-21T07:21:00.856Z,11.70
2017-12-21T07:23:27.532Z,15.57
2017-12-21T07:25:54.078Z,16.77
2017-12-21T07:28:20.552Z,15.53
2017-12-21T07:30:47.059Z,14.63
2017-12-21T07:33:13.551Z,13.80
2017-12-21T07:35:40.034Z,10.87
2017-12-21T07:38:06.477Z,8.53
2017-12-21T07:40:33.402Z,9.37
2017-12-21T07:43:00.858Z,10.17
2017-12-21T07:45:27.336Z,10.17
2017-12-21T07:47:54.265Z,9.67
2017-12-21T07:50:20.700Z,11.60
2017-12-21T07:52:47.117Z,9.90
2017-12-21T07:55:13.794Z,12.33
2017-12-21T07:57:40.251Z,11.47
2017-12-21T08:00:06.632Z,9.70
2017-12-21T08:02:33.036Z,9.77
2017-12-21T08:04:59.773Z,9.57
2017-12-21T08:07:26.397Z,9.10
2017-12-21T08:09:52.885Z,7.77
2017-12-21T08:12:19.352Z,8.80
2017-12-21T08:14:46.202Z,6.93
2017-12-21T08:17:13.145Z,7.50
2017-12-21T08:19:39.638Z,6.90
2017-12-21T08:22:06.456Z,8.20
2017-12-21T08:24:32.884Z,7.80
2017-12-21T08:26:59.297Z,7.20
2017-12-21T08:29:26.584Z,7.47
2017-12-21T08:31:53.086Z,7.30
2017-12-21T08:34:20.172Z,8.13
2017-12-21T08:36:46.568Z,6.80
2017-12-21T08:39:12.960Z,11.00
2017-12-21T08:41:39.370Z,8.63
2017-12-21T08:44:05.738Z,11.17
2017-12-21T08:46:32.536Z,9.00
2017-12-21T08:48:58.908Z,3.87
2017-12-21T08:51:25.306Z,8.00
2017-12-21T08:53:51.633Z,7.43
2017-12-21T08:56:18.296Z,7.20
2017-12-21T08:58:45.484Z,6.30
2017-12-21T09:01:11.921Z,7.33
2017-12-21T09:03:38.324Z,7.00
2017-12-21T09:06:04.895Z,6.80
2017-12-21T09:08:31.284Z,7.20
2017-12-21T09:10:58.439Z,6.60
2017-12-21T09:13:25.677Z,6.43
2017-12-21T09:15:52.147Z,6.40
2017-12-21T09:18:18.771Z,6.17
2017-12-21T09:20:45.218Z,6.60
2017-12-21T09:23:11.602Z,7.43
2017-12-21T09:25:38.064Z,6.93
2017-12-21T09:28:04.538Z,5.93
2017-12-21T09:30:30.868Z,6.30
2017-12-21T09:32:57.230Z,5.97
2017-12-21T09:35:23.808Z,5.47
2017-12-21T09:37:50.779Z,5.17
2017-12-21T09:40:17.272Z,5.40
2017-12-21T09:42:43.644Z,6.47
2017-12-21T09:45:09.995Z,5.23
2017-12-21T09:47:36.533Z,6.90
2017-12-21T09:50:03.052Z,7.10
2017-12-21T09:52:29.416Z,5.50
2017-12-21T09:54:56.025Z,6.10
2017-12-21T09:57:22.394Z,4.60
2017-12-21T09:59:48.700Z,5.37
2017-12-21T10:02:15.083Z,5.43
2017-12-21T10:04:41.415Z,6.40
2017-12-21T10:07:07.770Z,5.70
2017-12-21T10:09:34.145Z,5.77
2017-12-21T10:12:00.533Z,5.50
2017-12-21T10:14:27.653Z,5.73
2017-12-21T10:16:54.086Z,4.83
2017-12-21T10:19:20.690Z,5.53
2017-12-21T10:21:47.099Z,5.17
2017-12-21T10:24:13.534Z,4.80
2017-12-21T10:26:39.965Z,4.70
2017-12-21T10:29:06.414Z,6.30
2017-12-21T10:31:32.817Z,5.10
2017-12-21T10:33:59.212Z,5.80
2017-12-21T10:36:25.606Z,6.60
2017-12-21T10:38:52.039Z,6.17
2017-12-21T10:41:18.383Z,4.40
2017-12-21T10:43:44.700Z,4.87
2017-12-21T10:46:11.113Z,5.20
2017-12-21T10:48:37.450Z,5.97
2017-12-21T10:51:03.820Z,5.67
2017-12-21T10:53:30.318Z,5.60
2017-12-21T10:55:56.754Z,5.70
2017-12-21T10:58:23.230Z,8.60
2017-12-21T11:00:52.097Z,5.80
2017-12-21T11:03:18.635Z,4.07
2017-12-21T11:05:44.975Z,4.47
2017-12-21T11:08:11.375Z,5.30
2017-12-21T11:10:37.865Z,6.17
2017-12-21T11:13:04.333Z,5.57
2017-12-21T11:15:31.510Z,4.77
2017-12-21T11:17:57.909Z,4.43
2017-12-21T11:20:24.701Z,4.30
2017-12-21T11:22:51.190Z,4.77
2017-12-21T11:25:17.664Z,5.40
2017-12-21T11:27:44.024Z,4.77
2017-12-21T11:30:10.433Z,4.73
2017-12-21T11:32:39.960Z,5.00
2017-12-21T11:35:09.276Z,5.93
2017-12-21T11:37:35.753Z,5.40
2017-12-21T11:40:03.610Z,5.23
2017-12-21T11:42:30.619Z,5.30
2017-12-21T11:44:57.206Z,5.23
2017-12-21T11:47:24.601Z,4.37
2017-12-21T11:49:51.292Z,5.70
2017-12-21T11:52:19.362Z,7.13
2017-12-21T11:54:45.980Z,5.47
2017-12-21T11:57:13.694Z,5.10
2017-12-21T11:59:40.264Z,5.80
2017-12-21T12:02:07.757Z,5.30
2017-12-21T12:04:34.472Z,5.33
2017-12-21T12:07:02.520Z,5.43
2017-12-21T12:09:29.109Z,6.37
2017-12-21T12:11:55.984Z,5.03
2017-12-21T12:14:23.417Z,5.53
2017-12-21T12:16:49.947Z,4.93
2017-12-21T12:19:16.402Z,5.23
2017-12-21T12:21:43.236Z,5.03
2017-12-21T12:24:09.744Z,4.00
2017-12-21T12:26:36.249Z,3.37
2017-12-21T12:29:02.701Z,3.00
2017-12-21T12:31:30.043Z,4.93
2017-12-21T12:33:56.601Z,5.40
2017-12-21T12:36:23.065Z,3.37
2017-12-21T12:38:49.622Z,5.30
2017-12-21T12:41:16.250Z,4.10
2017-12-21T12:43:43.460Z,6.20
2017-12-21T12:46:10.138Z,4.13
2017-12-21T12:48:37.020Z,5.60
2017-12-21T12:51:03.557Z,5.10
2017-12-21T12:53:30.126Z,6.20
2017-12-21T12:55:56.577Z,7.23
2017-12-21T12:58:24.334Z,6.17
2017-12-21T13:00:52.237Z,6.40
2017-12-21T13:03:20.691Z,5.63
2017-12-21T13:05:47.377Z,5.33
2017-12-21T13:08:13.916Z,6.20
2017-12-21T13:10:40.933Z,4.87
2017-12-21T13:13:07.441Z,5.70
2017-12-21T13:15:34.299Z,5.07
2017-12-21T13:18:01.551Z,5.80
2017-12-21T13:20:29.000Z,6.00
2017-12-21T13:22:55.537Z,4.60
2017-12-21T13:25:24.508Z,4.00
2017-12-21T13:27:51.066Z,4.13
2017-12-21T13:30:17.524Z,3.50
2017-12-21T13:32:44.096Z,5.43
2017-12-21T13:35:11.920Z,4.27
2017-12-21T13:37:38.592Z,3.97
2017-12-21T13:40:05.025Z,4.73
2017-12-21T13:42:32.439Z,3.50
2017-12-21T13:44:58.770Z,5.03
2017-12-21T13:47:25.920Z,4.17
2017-12-21T13:49:53.013Z,4.47
2017-12-21T13:52:20.112Z,4.63
2017-12-21T13:54:46.620Z,5.07
2017-12-21T13:57:13.505Z,4.50
2017-12-21T13:59:40.316Z,4.50
2017-12-21T14:02:07.104Z,6.03
2017-12-21T14:04:34.373Z,5.53
2017-12-21T14:07:01.962Z,4.90
2017-12-21T14:09:28.452Z,4.63
2017-12-21T14:11:54.980Z,5.30
2017-12-21T14:14:21.779Z,6.50
2017-12-21T14:16:48.528Z,4.03
2017-12-21T14:19:15.729Z,4.57
2017-12-21T14:21:42.175Z,5.37
2017-12-21T14:24:10.495Z,4.27
2017-12-21T14:26:37.042Z,3.83
2017-12-21T14:29:04.301Z,4.50
2017-12-21T14:31:30.832Z,4.40
2017-12-21T14:33:57.610Z,4.37
2017-12-21T14:36:24.916Z,4.50
2017-12-21T14:38:52.074Z,3.60
2017-12-21T14:41:19.425Z,5.20
2017-12-21T14:43:45.887Z,5.03
2017-12-21T14:46:13.076Z,4.67
2017-12-21T14:48:39.518Z,5.63
2017-12-21T14:51:06.407Z,6.37
2017-12-21T14:53:33.405Z,6.00
2017-12-21T14:56:00.092Z,6.50
2017-12-21T14:58:26.542Z,6.90
2017-12-21T15:00:52.916Z,5.97
2017-12-21T15:03:19.503Z,8.17
2017-12-21T15:05:47.274Z,6.80
2017-12-21T15:08:15.424Z,7.40
2017-12-21T15:10:42.047Z,7.17
2017-12-21T15:13:09.496Z,6.50
2017-12-21T15:15:36.632Z,6.77
2017-12-21T15:18:03.185Z,6.00
2017-12-21T15:20:30.937Z,8.97
2017-12-21T15:22:57.903Z,5.90
2017-12-21T15:25:25.861Z,6.90
2017-12-21T15:27:52.890Z,5.00
2017-12-21T15:30:20.727Z,5.10
2017-12-21T15:32:47.424Z,4.87
2017-12-21T15:35:15.948Z,5.67
2017-12-21T15:37:42.717Z,5.40
2017-12-21T15:40:11.508Z,5.07
2017-12-21T15:42:38.344Z,5.27
2017-12-21T15:45:06.768Z,6.80
2017-12-21T15:47:36.182Z,5.30
2017-12-21T15:50:04.382Z,6.20
2017-12-21T15:52:32.322Z,6.60
2017-12-21T15:54:58.912Z,6.40
2017-12-21T15:57:25.319Z,6.20
2017-12-21T15:59:51.781Z,6.90
2017-12-21T16:02:18.223Z,5.40
2017-12-21T16:04:45.674Z,6.33
2017-12-21T16:07:12.773Z,6.43
2017-12-21T16:09:39.796Z,6.50
2017-12-21T16:12:06.269Z,7.37
2017-12-21T16:14:32.693Z,5.50
2017-12-21T16:16:59.563Z,6.37
2017-12-21T16:19:25.975Z,6.33
2017-12-21T16:21:52.373Z,5.60
2017-12-21T16:24:19.255Z,5.47
2017-12-21T16:26:46.604Z,5.20
2017-12-21T16:29:13.024Z,5.70
2017-12-21T16:31:40.440Z,6.10
2017-12-21T16:34:06.824Z,6.43
2017-12-21T16:36:34.484Z,5.80
2017-12-21T16:39:01.092Z,7.10
2017-12-21T16:41:27.515Z,5.77
2017-12-21T16:43:54.007Z,5.87
2017-12-21T16:46:20.394Z,6.60
2017-12-21T16:48:46.807Z,7.70
2017-12-21T16:51:13.307Z,7.40
2017-12-21T16:53:39.759Z,9.13
2017-12-21T16:56:06.196Z,9.93
2017-12-21T16:58:32.537Z,9.03
2017-12-21T17:00:59.922Z,9.33
2017-12-21T17:03:26.213Z,9.90
2017-12-21T17:05:52.681Z,10.63
2017-12-21T17:08:19.087Z,9.93
2017-12-21T17:10:45.425Z,9.50
2017-12-21T17:13:11.987Z,9.23
2017-12-21T17:15:39.519Z,8.90
2017-12-21T17:18:05.988Z,10.43
2017-12-21T17:20:33.201Z,7.97
2017-12-21T17:22:59.979Z,10.43
2017-12-21T17:25:26.502Z,8.80
2017-12-21T17:27:53.282Z,9.43
2017-12-21T17:30:21.702Z,10.00
2017-12-21T17:32:48.812Z,9.30
2017-12-21T17:35:16.521Z,7.30
2017-12-21T17:37:43.256Z,8.20
2017-12-21T17:40:10.471Z,8.73
2017-12-21T17:42:37.001Z,7.43
2017-12-21T17:45:03.717Z,8.23
2017-12-21T17:47:30.266Z,7.90
2017-12-21T17:49:57.764Z,8.47
2017-12-21T17:52:24.336Z,7.47
2017-12-21T17:54:51.596Z,7.03
2017-12-21T17:57:18.135Z,7.93
2017-12-21T17:59:45.609Z,8.23
2017-12-21T18:02:13.195Z,6.80
2017-12-21T18:04:40.113Z,6.60
2017-12-21T18:07:06.864Z,6.30
2017-12-21T18:09:33.436Z,6.13
2017-12-21T18:12:00.381Z,6.27
2017-12-21T18:14:27.016Z,5.83
2017-12-21T18:16:53.552Z,7.23
2017-12-21T18:19:20.112Z,5.83
2017-12-21T18:21:46.848Z,7.10
2017-12-21T18:24:14.212Z,6.40
2017-12-21T18:26:40.831Z,6.67
2017-12-21T18:29:07.947Z,7.10
2017-12-21T18:31:35.995Z,8.53
2017-12-21T18:34:03.966Z,8.10
2017-12-21T18:36:30.763Z,8.40
2017-12-21T18:38:58.216Z,9.03
2017-12-21T18:41:26.079Z,9.70
2017-12-21T18:43:53.307Z,9.27
2017-12-21T18:46:22.894Z,7.60
2017-12-21T18:48:50.073Z,8.07
2017-12-21T18:51:16.788Z,9.73
2017-12-21T18:53:44.578Z,8.30
2017-12-21T18:56:11.503Z,8.43
2017-12-21T18:58:38.797Z,8.73
2017-12-21T19:01:05.492Z,9.90
2017-12-21T19:03:32.502Z,8.13
2017-12-21T19:05:59.557Z,6.83
2017-12-21T19:08:26.885Z,7.20
2017-12-21T19:10:53.444Z,9.00
2017-12-21T19:13:22.195Z,9.23
2017-12-21T19:15:48.774Z,7.97
2017-12-21T19:18:16.073Z,8.10
2017-12-21T19:20:42.588Z,8.70
2017-12-21T19:23:09.411Z,7.80
2017-12-21T19:25:35.817Z,8.23
2017-12-21T19:28:02.429Z,10.30
2017-12-21T19:30:29.094Z,9.00
2017-12-21T19:32:55.681Z,9.07
2017-12-21T19:35:22.394Z,9.20
2017-12-21T19:37:48.878Z,9.67
2017-12-21T19:40:16.945Z,7.67
2017-12-21T19:42:44.053Z,9.67
2017-12-21T19:45:10.993Z,9.13
2017-12-21T19:47:37.510Z,8.80
2017-12-21T19:50:04.431Z,9.93
2017-12-21T19:52:33.566Z,8.80
2017-12-21T19:55:01.694Z,10.10
2017-12-21T19:57:29.819Z,10.23
2017-12-21T19:59:57.129Z,12.47
2017-12-21T20:02:23.577Z,11.83
2017-12-21T20:04:50.031Z,9.40
2017-12-21T20:07:16.643Z,8.70
2017-12-21T20:09:43.227Z,8.37
2017-12-21T20:12:09.603Z,7.73
2017-12-21T20:14:36.046Z,7.47
2017-12-21T20:17:02.681Z,8.17
2017-12-21T20:19:30.213Z,8.30
2017-12-21T20:21:57.414Z,7.40
2017-12-21T20:24:25.149Z,6.80
2017-12-21T20:26:51.895Z,7.17
2017-12-21T20:29:19.020Z,8.40
2017-12-21T20:31:45.993Z,7.27
2017-12-21T20:34:12.843Z,9.13
2017-12-21T20:36:40.592Z,6.77
2017-12-21T20:39:07.792Z,7.03
2017-12-21T20:41:34.783Z,8.00
2017-12-21T20:44:03.278Z,10.37
2017-12-21T20:46:30.646Z,7.83
2017-12-21T20:48:57.403Z,7.70
2017-12-21T20:51:24.316Z,7.27
2017-12-21T20:53:52.227Z,8.50
2017-12-21T20:56:19.335Z,6.80
2017-12-21T20:58:46.036Z,7.83
2017-12-21T21:01:15.784Z,7.00
2017-12-21T21:03:42.954Z,7.43
2017-12-21T21:06:11.114Z,7.90
2017-12-21T21:08:37.640Z,7.23
2017-12-21T21:11:04.597Z,6.90
2017-12-21T21:13:32.162Z,7.87
2017-12-21T21:15:59.777Z,6.47
2017-12-21T21:18:26.620Z,8.27
2017-12-21T21:20:53.322Z,7.33
2017-12-21T21:23:20.257Z,7.57
2017-12-21T21:25:46.995Z,6.83
2017-12-21T21:28:15.172Z,7.30
2017-12-21T21:30:42.364Z,7.60
2017-12-21T21:33:10.129Z,7.37
2017-12-21T21:35:37.950Z,8.67
2017-12-21T21:38:05.300Z,9.40
2017-12-21T21:40:33.120Z,7.57
2017-12-21T21:43:00.525Z,7.57
2017-12-21T21:45:27.713Z,8.40
2017-12-21T21:47:54.208Z,9.00
2017-12-21T21:50:20.707Z,7.93
2017-12-21T21:52:47.570Z,7.83
2017-12-21T21:55:14.822Z,7.60
2017-12-21T21:57:41.258Z,7.63
2017-12-21T22:00:09.594Z,7.93
2017-12-21T22:02:36.703Z,6.90
2017-12-21T22:05:03.268Z,7.23
2017-12-21T22:07:29.902Z,8.13
2017-12-21T22:09:57.138Z,9.10
2017-12-21T22:12:23.541Z,7.00
2017-12-21T22:14:50.160Z,7.60
2017-12-21T22:17:16.710Z,8.17
2017-12-21T22:19:43.965Z,7.70
2017-12-21T22:22:10.601Z,8.43
2017-12-21T22:24:38.371Z,8.50
2017-12-21T22:27:04.873Z,7.77
2017-12-21T22:29:32.226Z,7.67
2017-12-21T22:31:58.714Z,7.47
2017-12-21T22:34:26.103Z,9.27
2017-12-21T22:36:52.507Z,9.33
2017-12-21T22:39:19.084Z,7.80
2017-12-21T22:41:46.426Z,9.70
2017-12-21T22:44:12.824Z,9.00
2017-12-21T22:46:39.295Z,10.23
2017-12-21T22:49:05.764Z,11.03
2017-12-21T22:51:32.218Z,10.63
2017-12-21T22:53:58.805Z,10.50
2017-12-21T22:56:26.330Z,10.17
2017-12-21T22:58:53.795Z,10.97
2017-12-21T23:01:20.360Z,10.30
2017-12-21T23:03:47.929Z,11.53
2017-12-21T23:06:15.827Z,9.70
2017-12-21T23:08:43.719Z,8.20
2017-12-21T23:11:13.433Z,8.80
2017-12-21T23:13:41.865Z,7.17
2017-12-21T23:16:08.389Z,7.53
2017-12-21T23:18:34.856Z,7.50
2017-12-21T23:21:01.328Z,8.00
2017-12-21T23:23:27.785Z,5.60
2017-12-21T23:25:54.209Z,6.70
2017-12-21T23:28:20.706Z,7.20
2017-12-21T23:30:48.075Z,7.70
2017-12-21T23:33:14.575Z,8.80
2017-12-21T23:35:41.565Z,9.23
2017-12-21T23:38:10.815Z,7.40
2017-12-21T23:40:38.965Z,8.67
2017-12-21T23:43:05.516Z,9.40
2017-12-21T23:45:32.816Z,10.73
2017-12-21T23:47:59.939Z,9.50
2017-12-21T23:50:26.509Z,9.17
2017-12-21T23:52:53.780Z,7.73
2017-12-21T23:55:20.296Z,9.60
2017-12-21T23:57:47.823Z,7.97
